Time;durP1;ratioP1;P1;durP2;ratioP2;P2;SDS_P1;SDS_P2;PMS_P1;PMS_P2;Temp;Humidity;BMP_temperature;BMP_pressure;BME280_temperature;BME280_humidity;BME280_pressure;Samples;Min_cycle;Max_cycle;Signal;HPM_P1;HPM_P2
2023/06/10 00:08:24;;;;;;;21.20;19.97;;;19.40;99.90;;;;;;2611758;54;20495;-71
2023/06/10 00:14:12;;;;;;;21.90;20.60;;;19.20;99.90;;;;;;2611131;54;20146;-72
2023/06/10 00:20:00;;;;;;;21.90;20.57;;;19.10;99.90;;;;;;2610640;54;20427;-70
2023/06/10 00:25:48;;;;;;;21.30;19.90;;;19.10;99.90;;;;;;2613033;31;20613;-72
2023/06/10 00:31:37;;;;;;;22.70;20.57;;;19.10;99.90;;;;;;2613281;54;20131;-71
2023/06/10 00:37:25;;;;;;;21.93;20.37;;;19.10;99.90;;;;;;2612137;46;20434;-70
2023/06/10 00:43:13;;;;;;;21.50;20.10;;;19.20;99.90;;;;;;2611944;54;20162;-71
2023/06/10 00:49:01;;;;;;;20.70;19.10;;;19.10;99.90;;;;;;2612297;54;20138;-70
2023/06/10 00:54:49;;;;;;;20.27;18.97;;;19.00;99.90;;;;;;2614756;54;20395;-72
2023/06/10 01:00:36;;;;;;;22.23;20.33;;;18.80;99.90;;;;;;2609582;54;20367;-70
2023/06/10 01:12:59;;;;;;;21.20;19.90;;;18.60;99.90;;;;;;2608192;39;20972;-70
2023/06/10 01:18:47;;;;;;;20.70;19.40;;;18.50;99.90;;;;;;2610462;54;20483;-71
2023/06/10 01:24:36;;;;;;;20.90;19.50;;;18.40;99.90;;;;;;2613152;54;20131;-71
2023/06/10 01:30:29;;;;;;;22.10;20.47;;;18.20;99.90;;;;;;2611893;54;20961;-72
2023/06/10 01:36:18;;;;;;;21.67;20.17;;;18.10;99.90;;;;;;2611395;46;20447;-71
2023/06/10 01:42:07;;;;;;;20.93;19.53;;;18.00;99.90;;;;;;2611744;54;20391;-71
2023/06/10 01:47:55;;;;;;;21.63;19.90;;;18.00;99.90;;;;;;2610801;54;20427;-69
2023/06/10 01:53:42;;;;;;;21.80;20.27;;;18.10;99.90;;;;;;2610656;39;20520;-72
2023/06/10 01:59:30;;;;;;;21.67;20.00;;;18.00;99.90;;;;;;2611531;54;20134;-71
2023/06/10 02:08:41;;;;;;;20.50;19.10;;;17.90;99.90;;;;;;2611363;54;20363;-70
2023/06/10 02:14:29;;;;;;;21.80;20.33;;;17.70;99.90;;;;;;2609628;54;20163;-72
2023/06/10 02:20:17;;;;;;;21.50;20.10;;;17.70;99.90;;;;;;2613295;39;20849;-72
2023/06/10 02:26:05;;;;;;;21.67;20.20;;;17.60;99.90;;;;;;2611436;54;20247;-73
2023/06/10 02:31:53;;;;;;;21.30;19.70;;;17.50;99.90;;;;;;2612411;54;20391;-71
2023/06/10 02:37:40;;;;;;;23.63;21.87;;;17.40;99.90;;;;;;2612416;39;20202;-71
2023/06/10 02:43:28;;;;;;;20.97;19.47;;;17.20;99.90;;;;;;2612200;54;20134;-75
2023/06/10 02:49:16;;;;;;;23.33;21.40;;;17.20;99.90;;;;;;2613106;54;20130;-76
2023/06/10 02:55:05;;;;;;;23.23;21.27;;;17.40;99.90;;;;;;2612169;54;20138;-75
2023/06/10 03:00:53;;;;;;;24.47;22.37;;;17.30;99.90;;;;;;2612148;54;20420;-75
2023/06/10 03:04:13;;;;;;;24.10;22.20;;;17.30;99.90;;;;;;2612136;54;20435;-76
2023/06/10 03:06:40;;;;;;;24.33;22.03;;;17.20;99.90;;;;;;2611356;47;20170;-74
2023/06/10 03:12:28;;;;;;;23.80;21.90;;;17.20;99.90;;;;;;2611311;54;20375;-74
2023/06/10 03:18:16;;;;;;;22.90;21.00;;;17.20;99.90;;;;;;2612430;54;20316;-75
2023/06/10 03:24:05;;;;;;;23.83;21.83;;;17.30;99.90;;;;;;2610904;54;20628;-74
2023/06/10 03:29:52;;;;;;;24.07;22.07;;;17.10;99.90;;;;;;2613464;39;20744;-74
2023/06/10 03:35:41;;;;;;;23.07;21.30;;;17.00;99.90;;;;;;2613481;54;20154;-75
2023/06/10 03:41:29;;;;;;;23.40;21.40;;;16.90;99.90;;;;;;2611175;54;20423;-75
2023/06/10 03:47:17;;;;;;;25.33;23.33;;;16.90;99.90;;;;;;2611193;54;20390;-75
2023/06/10 03:53:05;;;;;;;23.83;21.93;;;16.90;99.90;;;;;;2613025;46;20928;-75
2023/06/10 03:58:53;;;;;;;24.10;22.13;;;17.00;99.90;;;;;;2612544;54;20657;-75
2023/06/10 04:08:43;;;;;;;23.97;21.67;;;17.10;99.90;;;;;;2611058;54;20945;-75
2023/06/10 04:14:31;;;;;;;22.80;21.00;;;17.30;99.90;;;;;;2610762;54;20447;-75
2023/06/10 04:20:18;;;;;;;22.33;20.60;;;17.30;99.90;;;;;;2609521;54;20246;-75
2023/06/10 04:26:07;;;;;;;24.40;22.60;;;17.40;99.90;;;;;;2611806;54;20130;-75
2023/06/10 04:31:55;;;;;;;22.70;20.90;;;17.60;99.90;;;;;;2612010;54;20392;-75
2023/06/10 04:37:43;;;;;;;22.93;21.23;;;17.80;99.90;;;;;;2612390;54;20139;-74
2023/06/10 04:43:31;;;;;;;21.83;19.97;;;18.00;99.90;;;;;;2612184;54;20218;-74
2023/06/10 04:49:18;;;;;;;21.90;20.10;;;18.40;99.90;;;;;;2612113;54;20230;-75
2023/06/10 04:55:07;;;;;;;19.80;18.40;;;18.70;99.90;;;;;;2610798;54;20161;-75
2023/06/10 05:00:54;;;;;;;20.00;18.70;;;19.10;99.90;;;;;;2611748;54;20512;-75
2023/06/10 05:04:10;;;;;;;20.43;18.90;;;19.30;99.90;;;;;;2612548;46;20415;-74
2023/06/10 05:06:36;;;;;;;20.17;18.87;;;19.60;99.90;;;;;;2610620;54;20246;-76
2023/06/10 05:12:24;;;;;;;20.57;19.03;;;19.90;99.90;;;;;;2611516;54;20403;-75
2023/06/10 05:18:12;;;;;;;20.70;19.00;;;20.20;99.90;;;;;;2611730;54;20395;-75
2023/06/10 05:24:00;;;;;;;20.87;19.37;;;20.50;99.90;;;;;;2613325;54;20426;-75
2023/06/10 05:29:48;;;;;;;21.43;20.03;;;20.70;95.20;;;;;;2614520;54;20193;-76
2023/06/10 05:35:36;;;;;;;19.90;18.60;;;20.70;99.50;;;;;;2614947;39;20779;-75
2023/06/10 05:41:23;;;;;;;20.73;19.23;;;21.10;94.90;;;;;;2611006;54;20863;-75
2023/06/10 05:47:11;;;;;;;20.93;19.57;;;21.20;88.40;;;;;;2612577;46;20162;-75
2023/06/10 05:52:59;;;;;;;20.60;19.40;;;21.50;84.60;;;;;;2610987;54;20142;-75
2023/06/10 05:58:47;;;;;;;21.30;19.90;;;22.00;59.00;;;;;;2612221;54;20135;-75
2023/06/10 06:08:41;;;;;;;22.43;20.87;;;22.00;45.30;;;;;;2612149;54;20983;-75
2023/06/10 06:14:34;;;;;;;21.57;20.20;;;22.60;40.30;;;;;;2609477;54;20398;-75
2023/06/10 06:20:23;;;;;;;20.60;19.10;;;22.70;34.50;;;;;;2612362;54;20427;-75
2023/06/10 06:26:10;;;;;;;21.27;19.60;;;23.00;34.50;;;;;;2613709;54;20946;-75
2023/06/10 06:31:58;;;;;;;20.80;19.40;;;23.40;33.50;;;;;;2613471;54;20158;-76
2023/06/10 06:37:46;;;;;;;19.83;18.70;;;23.80;33.40;;;;;;2612448;54;20136;-76
2023/06/10 06:43:34;;;;;;;20.10;18.87;;;23.80;29.60;;;;;;2613275;54;20130;-76
2023/06/10 06:49:21;;;;;;;21.17;19.47;;;23.80;28.50;;;;;;2615318;54;20403;-76
2023/06/10 06:55:09;;;;;;;18.87;17.87;;;24.50;22.70;;;;;;2611146;54;20162;-75
2023/06/10 07:00:57;;;;;;;22.00;20.60;;;24.50;20.90;;;;;;2613551;46;20158;-76
2023/06/10 07:04:11;;;;;;;19.47;18.47;;;24.10;23.00;;;;;;2613014;54;20419;-76
2023/06/10 07:06:37;;;;;;;19.20;17.93;;;24.80;20.10;;;;;;2614290;39;20615;-77
2023/06/10 07:12:25;;;;;;;19.40;18.30;;;24.70;19.80;;;;;;2612791;54;20439;-76
2023/06/10 07:18:16;;;;;;;19.20;18.20;;;24.60;19.50;;;;;;2613001;54;20115;-76
2023/06/10 07:24:04;;;;;;;20.60;19.30;;;25.50;15.90;;;;;;2612995;54;20395;-76
2023/06/10 07:29:52;;;;;;;19.73;18.73;;;25.20;18.70;;;;;;2611575;54;20694;-74
2023/06/10 07:35:39;;;;;;;19.20;18.20;;;25.60;16.90;;;;;;2615106;54;20157;-75
2023/06/10 07:41:27;;;;;;;20.50;19.00;;;26.20;15.20;;;;;;2615173;46;20217;-75
2023/06/10 07:47:15;;;;;;;18.97;18.00;;;25.70;13.90;;;;;;2613254;54;20642;-73
2023/06/10 07:53:03;;;;;;;18.43;17.33;;;26.90;12.00;;;;;;2615383;39;20517;-75
2023/06/10 07:58:50;;;;;;;18.90;17.93;;;27.30;9.80;;;;;;2614162;54;20123;-74
2023/06/10 08:08:45;;;;;;;18.80;17.30;;;26.90;12.70;;;;;;2613082;39;21179;-75
2023/06/10 08:14:33;;;;;;;18.53;17.60;;;27.50;10.30;;;;;;2612886;54;20402;-75
2023/06/10 08:20:21;;;;;;;19.33;18.10;;;27.20;12.30;;;;;;2615145;54;20131;-74
2023/06/10 08:26:08;;;;;;;17.33;16.53;;;27.10;10.20;;;;;;2614558;54;20138;-74
2023/06/10 08:31:56;;;;;;;19.67;18.27;;;27.70;8.40;;;;;;2614376;54;20880;-74
2023/06/10 08:37:44;;;;;;;19.73;18.43;;;28.10;9.00;;;;;;2614446;39;20631;-74
2023/06/10 08:43:34;;;;;;;17.20;16.30;;;28.40;8.70;;;;;;2613979;54;20680;-75
2023/06/10 08:49:25;;;;;;;17.73;16.83;;;28.10;8.50;;;;;;2613225;54;20519;-74
2023/06/10 09:01:37;;;;;;;17.83;16.87;;;28.80;7.10;;;;;;2610395;54;20362;-74
2023/06/10 09:04:13;;;;;;;19.30;18.20;;;28.80;8.80;;;;;;2613006;54;20404;-76
2023/06/10 09:06:40;;;;;;;18.70;17.60;;;28.90;5.70;;;;;;2613513;47;20423;-77
2023/06/10 09:12:27;;;;;;;18.03;17.03;;;28.50;4.50;;;;;;2614257;54;20391;-76
2023/06/10 09:18:15;;;;;;;18.53;17.53;;;28.70;4.50;;;;;;2610979;39;20466;-76
2023/06/10 09:24:05;;;;;;;17.97;17.17;;;29.40;3.30;;;;;;2613371;31;20810;-75
2023/06/10 09:29:54;;;;;;;17.97;17.07;;;29.00;2.00;;;;;;2612083;54;20410;-76
2023/06/10 09:35:47;;;;;;;18.87;17.87;;;29.20;4.30;;;;;;2611491;54;20395;-77
2023/06/10 09:41:39;;;;;;;18.43;16.90;;;29.70;5.00;;;;;;2612435;31;20874;-75
2023/06/10 09:47:27;;;;;;;19.30;17.83;;;30.20;2.00;;;;;;2614287;54;20391;-76
2023/06/10 09:53:16;;;;;;;18.30;17.30;;;30.20;1.10;;;;;;2612769;54;20133;-76
2023/06/10 09:59:06;;;;;;;19.83;18.73;;;30.00;1.00;;;;;;2611861;39;20742;-75
2023/06/10 10:08:44;;;;;;;19.27;18.40;;;30.80;1.00;;;;;;2611996;54;20411;-76
2023/06/10 10:14:32;;;;;;;19.10;18.20;;;30.60;1.00;;;;;;2611885;39;20793;-76
2023/06/10 10:20:26;;;;;;;19.30;18.20;;;30.10;1.00;;;;;;2613079;39;20760;-76
2023/06/10 10:26:14;;;;;;;19.40;18.30;;;31.40;1.00;;;;;;2612078;54;20395;-77
2023/06/10 10:32:03;;;;;;;18.40;17.40;;;30.40;1.00;;;;;;2610331;46;20382;-77
2023/06/10 10:37:55;;;;;;;20.70;19.40;;;30.80;1.00;;;;;;2613019;54;20395;-77
2023/06/10 10:43:44;;;;;;;18.63;17.73;;;31.60;1.00;;;;;;2614328;54;20354;-76
2023/06/10 10:49:33;;;;;;;18.43;17.37;;;30.30;1.00;;;;;;2615248;54;20415;-77
2023/06/10 10:55:21;;;;;;;19.30;18.40;;;31.00;1.00;;;;;;2615251;54;20519;-76
2023/06/10 11:01:14;;;;;;;18.10;17.30;;;31.70;1.00;;;;;;2612954;54;20407;-76
2023/06/10 11:04:12;;;;;;;19.80;18.80;;;31.50;1.00;;;;;;2613010;54;20400;-76
2023/06/10 11:06:38;;;;;;;18.97;18.03;;;31.60;1.00;;;;;;2613009;54;20511;-77
2023/06/10 11:09:42;;;;;;;20.60;19.30;;;31.60;1.00;;;;;;2610634;54;20423;-75
2023/06/10 11:12:09;;;;;;;19.57;18.57;;;31.80;1.00;;;;;;2613921;54;20162;-70
2023/06/10 11:24:32;;;;;;;20.30;19.00;;;31.20;1.00;;;;;;2612111;54;20383;-69
2023/06/10 11:30:20;;;;;;;20.50;19.30;;;31.50;1.00;;;;;;2613191;54;20383;-70
2023/06/10 11:36:08;;;;;;;19.10;18.20;;;31.90;1.00;;;;;;2612506;54;20390;-70
2023/06/10 11:41:56;;;;;;;19.60;18.60;;;31.70;1.00;;;;;;2612766;39;20849;-69
2023/06/10 11:47:57;;;;;;;20.50;19.40;;;32.10;1.00;;;;;;2611003;54;20139;-70
2023/06/10 11:53:49;;;;;;;21.93;20.40;;;32.50;1.00;;;;;;2614430;54;20391;-71
2023/06/10 11:59:38;;;;;;;20.60;19.53;;;32.70;1.00;;;;;;2613636;54;20395;-69
2023/06/10 12:08:48;;;;;;;20.83;19.73;;;31.80;1.00;;;;;;2611865;54;20450;-70
2023/06/10 12:14:58;;;;;;;21.30;20.10;;;31.90;1.00;;;;;;2612550;54;20263;-70
2023/06/10 12:20:46;;;;;;;20.13;19.07;;;32.00;1.00;;;;;;2614102;54;20383;-70
2023/06/10 12:26:36;;;;;;;20.63;19.60;;;32.40;1.00;;;;;;2613536;54;20922;-69
2023/06/10 12:39:04;;;;;;;19.63;18.70;;;32.20;1.00;;;;;;2614526;54;20391;-70
2023/06/10 12:44:56;;;;;;;19.83;18.70;;;32.70;1.00;;;;;;2615127;54;20391;-68
2023/06/10 12:50:45;;;;;;;21.20;19.80;;;32.40;1.00;;;;;;2613965;54;20384;-70
2023/06/10 12:56:32;;;;;;;19.80;18.57;;;32.10;1.00;;;;;;2614315;54;20940;-69
2023/06/10 13:02:20;;;;;;;20.07;18.90;;;31.90;1.00;;;;;;2614181;54;20119;-69
2023/06/10 13:08:11;;;;;;;20.57;19.47;;;32.30;1.00;;;;;;2615005;39;20734;-68
2023/06/10 13:13:59;;;;;;;20.00;18.90;;;32.00;1.00;;;;;;2614350;39;20756;-69
2023/06/10 13:19:48;;;;;;;19.90;18.80;;;32.20;1.00;;;;;;2615032;39;20796;-69
2023/06/10 13:25:36;;;;;;;20.47;19.37;;;32.60;1.00;;;;;;2614710;54;20357;-70
2023/06/10 13:31:24;;;;;;;19.57;18.67;;;32.80;1.00;;;;;;2613209;47;20697;-69
2023/06/10 13:37:12;;;;;;;19.30;18.40;;;32.10;1.00;;;;;;2614905;39;20552;-70
2023/06/10 13:43:00;;;;;;;18.93;18.00;;;33.10;1.00;;;;;;2608861;54;20396;-70
2023/06/10 13:48:48;;;;;;;19.93;19.03;;;32.00;1.00;;;;;;2611665;54;20422;-69
2023/06/10 13:54:36;;;;;;;20.63;19.50;;;32.40;1.00;;;;;;2613031;54;20130;-69
2023/06/10 14:00:23;;;;;;;19.90;18.80;;;32.10;1.00;;;;;;2612217;54;20142;-69
2023/06/10 14:09:34;;;;;;;19.40;18.40;;;32.20;1.00;;;;;;2612141;54;20407;-69
2023/06/10 14:15:22;;;;;;;19.00;18.10;;;31.60;1.00;;;;;;2612145;54;20399;-70
2023/06/10 14:21:09;;;;;;;19.40;18.50;;;31.90;1.00;;;;;;2614486;54;20154;-70
2023/06/10 14:26:58;;;;;;;19.50;18.40;;;31.70;1.00;;;;;;2613935;54;20263;-70
2023/06/10 14:32:45;;;;;;;19.77;18.20;;;32.70;1.00;;;;;;2613885;54;20484;-70
2023/06/10 14:38:33;;;;;;;18.10;17.10;;;32.70;1.00;;;;;;2615372;54;20251;-70
2023/06/10 14:44:21;;;;;;;19.10;18.20;;;31.50;1.00;;;;;;2615148;54;20126;-68
2023/06/10 14:50:09;;;;;;;19.40;18.30;;;32.90;1.00;;;;;;2615231;54;20123;-69
2023/06/10 14:55:57;;;;;;;19.60;18.60;;;32.70;1.00;;;;;;2615144;54;20360;-70
2023/06/10 15:01:44;;;;;;;19.97;18.80;;;32.10;1.00;;;;;;2615115;54;20134;-70
2023/06/10 15:04:57;;;;;;;19.10;17.90;;;31.90;1.00;;;;;;2613601;54;20423;-70
2023/06/10 15:07:23;;;;;;;19.23;18.33;;;31.70;1.00;;;;;;2613320;54;20178;-71
2023/06/10 15:13:10;;;;;;;20.70;19.53;;;32.10;1.00;;;;;;2612258;54;20146;-69
2023/06/10 15:18:58;;;;;;;20.50;19.40;;;31.70;1.00;;;;;;2612959;46;20166;-70
2023/06/10 15:24:46;;;;;;;21.10;19.90;;;31.20;1.00;;;;;;2614298;54;20644;-70
2023/06/10 15:30:34;;;;;;;19.47;18.47;;;31.60;1.00;;;;;;2614423;54;20122;-70
2023/06/10 15:36:21;;;;;;;19.60;18.50;;;31.80;1.00;;;;;;2613723;54;20395;-70
2023/06/10 15:42:10;;;;;;;19.00;17.97;;;31.50;1.00;;;;;;2613018;54;20143;-70
2023/06/10 15:47:58;;;;;;;19.97;18.90;;;31.20;1.00;;;;;;2612645;54;20402;-70
2023/06/10 15:53:47;;;;;;;20.00;19.10;;;30.80;1.00;;;;;;2612713;54;20499;-70
2023/06/10 15:59:34;;;;;;;19.60;18.50;;;31.20;1.00;;;;;;2613298;54;20415;-70
2023/06/10 16:09:28;;;;;;;19.60;18.60;;;31.80;1.00;;;;;;2613691;54;20391;-76
2023/06/10 16:15:16;;;;;;;19.70;18.50;;;31.40;1.00;;;;;;2614181;54;20367;-76
2023/06/10 16:21:05;;;;;;;19.93;18.77;;;32.10;1.00;;;;;;2613005;54;20162;-76
2023/06/10 16:26:53;;;;;;;20.80;19.50;;;31.40;1.00;;;;;;2612438;54;20398;-75
2023/06/10 16:32:40;;;;;;;22.40;21.30;;;30.90;1.00;;;;;;2612534;54;20178;-76
2023/06/10 16:38:28;;;;;;;19.50;18.50;;;30.40;1.00;;;;;;2612912;54;20178;-77
2023/06/10 16:44:16;;;;;;;20.80;19.80;;;30.50;1.00;;;;;;2614197;54;20122;-76
2023/06/10 16:50:04;;;;;;;20.60;19.47;;;29.70;1.00;;;;;;2614987;54;20972;-76
2023/06/10 16:55:52;;;;;;;19.23;18.30;;;30.20;1.00;;;;;;2611908;54;20476;-77
2023/06/10 17:01:40;;;;;;;22.40;21.10;;;30.00;1.00;;;;;;2612124;39;20536;-76
2023/06/10 17:04:43;;;;;;;21.07;19.70;;;29.90;1.00;;;;;;2611344;54;20428;-76
2023/06/10 17:10:46;;;;;;;21.13;20.03;;;29.70;1.00;;;;;;2612545;54;20447;-77
2023/06/10 17:16:34;;;;;;;20.83;19.63;;;29.40;1.00;;;;;;2611330;54;20504;-76
2023/06/10 17:22:22;;;;;;;20.87;19.87;;;29.40;1.00;;;;;;2613755;54;20918;-77
2023/06/10 17:28:10;;;;;;;20.73;19.43;;;29.30;1.00;;;;;;2611604;54;20984;-76
2023/06/10 17:33:58;;;;;;;21.80;20.20;;;29.20;1.00;;;;;;2611837;54;20134;-76
2023/06/10 17:39:45;;;;;;;22.10;20.80;;;28.90;1.00;;;;;;2611055;54;20134;-76
2023/06/10 17:45:33;;;;;;;20.20;19.17;;;28.70;1.00;;;;;;2611744;54;20139;-76
2023/06/10 17:51:22;;;;;;;20.33;19.23;;;28.50;1.00;;;;;;2612526;54;20134;-75
2023/06/10 17:57:09;;;;;;;20.40;19.30;;;28.30;1.00;;;;;;2615775;54;20399;-77
2023/06/10 18:02:57;;;;;;;20.90;19.70;;;28.20;1.00;;;;;;2615239;46;20948;-77
2023/06/10 18:08:56;;;;;;;21.57;20.47;;;28.00;1.00;;;;;;2610703;46;20162;-76
2023/06/10 18:14:44;;;;;;;21.13;20.00;;;27.90;1.00;;;;;;2610706;54;20159;-77
2023/06/10 18:20:31;;;;;;;21.20;20.10;;;27.80;1.00;;;;;;2610028;54;21244;-76
2023/06/10 18:26:18;;;;;;;22.07;20.87;;;27.70;1.00;;;;;;2610234;54;20251;-72
2023/06/10 18:32:06;;;;;;;21.97;20.60;;;27.50;1.00;;;;;;2610439;54;20135;-71
2023/06/10 18:37:53;;;;;;;22.77;21.57;;;27.40;1.00;;;;;;2613034;54;20534;-72
2023/06/10 18:43:41;;;;;;;23.27;21.90;;;27.20;1.00;;;;;;2613185;54;20144;-72
2023/06/10 18:49:28;;;;;;;22.50;21.40;;;27.00;2.60;;;;;;2614134;54;20145;-71
2023/06/10 18:55:16;;;;;;;24.10;22.80;;;26.80;3.90;;;;;;2610641;54;21417;-72
2023/06/10 19:01:04;;;;;;;22.20;20.63;;;26.70;4.10;;;;;;2609584;54;20147;-71
2023/06/10 19:10:42;;;;;;;22.37;21.07;;;26.50;4.90;;;;;;2614929;39;20735;-72
2023/06/10 19:16:30;;;;;;;22.17;20.97;;;26.30;5.80;;;;;;2613906;54;20394;-72
2023/06/10 19:22:18;;;;;;;21.87;20.57;;;26.10;6.40;;;;;;2614380;54;20645;-72
2023/06/10 19:28:08;;;;;;;23.00;21.60;;;25.90;6.60;;;;;;2615017;54;20143;-72
2023/06/10 19:33:56;;;;;;;22.73;21.43;;;25.70;7.20;;;;;;2614882;54;20427;-72
2023/06/10 19:39:43;;;;;;;22.60;21.13;;;25.60;8.00;;;;;;2612818;54;20146;-72
2023/06/10 19:45:31;;;;;;;21.93;20.60;;;25.40;9.00;;;;;;2613771;54;20125;-71
2023/06/10 19:51:20;;;;;;;22.33;20.83;;;25.20;10.50;;;;;;2612734;54;20133;-72
2023/06/10 19:57:07;;;;;;;22.57;21.33;;;25.00;12.50;;;;;;2612594;54;20918;-72
2023/06/10 20:02:55;;;;;;;22.33;21.20;;;24.80;13.70;;;;;;2612652;39;20540;-72
2023/06/10 20:06:13;;;;;;;23.30;22.00;;;24.80;14.90;;;;;;2611453;47;20412;-71
2023/06/10 20:08:40;;;;;;;23.33;22.03;;;24.60;16.10;;;;;;2613420;54;20289;-72
2023/06/10 20:14:28;;;;;;;22.80;21.40;;;24.50;17.10;;;;;;2613591;54;20473;-72
2023/06/10 20:20:15;;;;;;;24.27;22.43;;;24.30;19.70;;;;;;2614476;39;20647;-72
2023/06/10 20:26:03;;;;;;;25.23;23.70;;;24.20;20.60;;;;;;2614302;54;20139;-72
2023/06/10 20:31:51;;;;;;;30.50;28.40;;;23.80;26.00;;;;;;2614525;54;20127;-72
2023/06/10 20:37:39;;;;;;;28.97;27.07;;;23.70;26.60;;;;;;2614500;54;20483;-71
2023/06/10 20:43:26;;;;;;;28.23;26.27;;;23.60;28.80;;;;;;2614696;54;20122;-73
2023/06/10 20:49:14;;;;;;;32.63;30.63;;;23.60;28.80;;;;;;2614273;54;20154;-72
2023/06/10 20:55:03;;;;;;;24.77;23.47;;;23.60;29.10;;;;;;2613107;54;20130;-72
2023/06/10 21:00:50;;;;;;;23.63;22.00;;;23.50;30.00;;;;;;2611537;54;20131;-73
2023/06/10 21:10:41;;;;;;;24.33;22.73;;;23.40;29.70;;;;;;2614086;54;20368;-73
2023/06/10 21:16:30;;;;;;;23.17;21.87;;;23.30;30.20;;;;;;2612467;54;20362;-73
2023/06/10 21:22:18;;;;;;;24.20;22.63;;;23.30;31.50;;;;;;2609809;54;20391;-72
2023/06/10 21:28:05;;;;;;;23.23;21.93;;;23.30;31.60;;;;;;2613176;54;20125;-73
2023/06/10 21:33:54;;;;;;;24.10;22.70;;;23.20;33.20;;;;;;2612392;54;20371;-72
2023/06/10 21:39:42;;;;;;;22.63;21.23;;;23.30;32.20;;;;;;2611300;54;20165;-72
2023/06/10 21:45:30;;;;;;;22.87;21.40;;;23.10;34.90;;;;;;2608216;54;20354;-72
2023/06/10 21:51:17;;;;;;;23.30;21.80;;;22.80;38.60;;;;;;2609141;54;20139;-72
2023/06/10 21:57:06;;;;;;;23.10;21.60;;;22.70;43.70;;;;;;2610938;39;20572;-73
2023/06/10 22:02:53;;;;;;;22.83;21.57;;;22.60;49.80;;;;;;2609616;54;20412;-73
2023/06/10 22:06:13;;;;;;;23.07;21.57;;;22.50;50.20;;;;;;2609631;54;20396;-73
2023/06/10 22:08:38;;;;;;;23.50;21.77;;;22.60;51.30;;;;;;2609108;54;20159;-72
2023/06/10 22:14:26;;;;;;;24.60;22.77;;;22.40;54.40;;;;;;2603769;54;20147;-72
2023/06/10 22:20:14;;;;;;;23.77;22.20;;;22.10;77.00;;;;;;2606311;54;20154;-72
2023/06/10 22:26:02;;;;;;;22.30;21.10;;;22.10;72.50;;;;;;2605729;54;20199;-73
2023/06/10 22:31:50;;;;;;;24.50;23.03;;;21.80;93.50;;;;;;2609668;54;20467;-73
2023/06/10 22:37:37;;;;;;;23.33;21.83;;;21.40;99.90;;;;;;2605353;54;20129;-72
2023/06/10 22:43:25;;;;;;;23.97;22.57;;;21.10;99.90;;;;;;2610299;54;20147;-73
2023/06/10 22:49:13;;;;;;;23.17;21.87;;;21.00;99.90;;;;;;2606157;54;20170;-73
2023/06/10 22:55:02;;;;;;;22.57;21.27;;;20.90;99.90;;;;;;2606950;54;20132;-73
2023/06/10 23:00:49;;;;;;;21.67;20.40;;;21.10;99.90;;;;;;2607296;39;20429;-72
2023/06/10 23:10:43;;;;;;;23.40;21.90;;;21.10;99.90;;;;;;2604908;54;20479;-73
2023/06/10 23:16:31;;;;;;;24.30;22.70;;;20.70;99.90;;;;;;2607219;54;21062;-73
2023/06/10 23:22:19;;;;;;;24.23;22.73;;;20.90;99.90;;;;;;2606576;54;21360;-73
2023/06/10 23:28:06;;;;;;;23.37;21.90;;;20.70;99.90;;;;;;2607712;54;20787;-72
2023/06/10 23:33:54;;;;;;;24.30;22.80;;;20.40;99.90;;;;;;2607553;54;20178;-72
2023/06/10 23:39:44;;;;;;;23.20;21.70;;;20.20;99.90;;;;;;2606680;54;20490;-73
2023/06/10 23:45:32;;;;;;;23.03;21.73;;;20.40;99.90;;;;;;2610560;54;20387;-72
2023/06/10 23:51:20;;;;;;;23.93;22.43;;;20.10;99.90;;;;;;2606925;54;20371;-71
2023/06/10 23:57:08;;;;;;;22.63;21.03;;;19.90;99.90;;;;;;2610448;39;20557;-72
